CST,Max TemperatureF,Mean TemperatureF,Min TemperatureF,Max Dew PointF,MeanDew PointF,Min DewpointF,Max Humidity, Mean Humidity, Min Humidity, Max Sea Level PressureIn, Mean Sea Level PressureIn, Min Sea Level PressureIn, Max VisibilityMiles, Mean VisibilityMiles, Min VisibilityMiles, Max Wind SpeedMPH, Mean Wind SpeedMPH, Max Gust SpeedMPH,PrecipitationIn, CloudCover, Events, WindDirDegrees
2012-11-1,74,64,51,66,57,50,100,80,43,30.07,30.01,29.96,10,10,10,14,8,,0.00,2,Rain,331
2012-11-2,75,60,46,69,59,47,100,92,70,30.11,30.06,30.02,10,8,2,12,2,,0.00,0,,222
2012-11-3,78,68,59,73,67,60,100,97,74,30.14,30.09,30.06,10,5,0,12,4,,0.01,0,Fog,281
2012-11-4,76,67,58,72,64,58,100,98,84,30.12,30.08,30.01,10,4,0,13,3,,0.01,0,Fog,264
2012-11-5,73,64,55,60,57,51,100,85,45,30.08,29.99,29.90,10,10,10,8,5,,0.02,2,Rain-Thunderstorm,62
2012-11-6,66,60,53,60,56,50,100,90,64,30.00,29.93,29.88,10,8,3,17,9,22,0.01,5,Rain,4
2012-11-7,64,58,51,50,48,45,90,74,59,30.10,30.01,29.93,10,10,10,16,10,23,0.00,1,,330
2012-11-8,65,54,43,49,45,43,99,79,52,30.22,30.18,30.10,10,10,9,10,6,,0.00,0,,11
2012-11-9,67,54,41,52,47,41,100,85,52,30.32,30.26,30.22,10,9,1,8,2,,0.00,0,,109
2012-11-10,72,57,42,58,49,42,100,87,59,30.34,30.28,30.25,10,8,1,10,2,,0.00,0,,126
2012-11-11,77,64,51,63,56,45,99,79,57,30.33,30.27,30.24,10,9,4,17,8,26,0.00,0,,98
2012-11-12,76,68,59,69,64,59,100,96,77,30.26,30.22,30.19,10,10,10,16,8,21,0.00,4,,56
2012-11-13,67,60,53,59,52,41,100,84,57,30.29,30.23,30.17,10,10,10,13,9,20,0.00,7,,16
2012-11-14,63,57,51,63,57,42,100,95,64,30.24,30.20,30.17,10,8,2,10,6,,0.03,8,Rain,28
2012-11-15,58,54,50,57,54,48,100,96,87,30.25,30.20,30.17,10,9,4,12,7,16,0.00,8,,32
2012-11-16,53,48,44,50,48,43,100,95,86,30.28,30.24,30.21,10,9,2,10,6,,0.00,5,,51
2012-11-17,65,54,44,55,48,44,100,84,67,30.30,30.26,30.21,10,10,4,12,5,,0.00,4,,38
2012-11-18,70,59,48,56,50,43,87,75,58,30.29,30.25,30.21,10,10,10,13,8,17,0.00,3,,33
2012-11-19,72,60,49,57,52,48,94,78,55,30.26,30.21,30.15,10,10,10,10,6,18,0.00,0,,19
2012-11-20,69,62,54,61,57,53,100,82,68,30.19,30.13,30.08,10,10,10,10,5,,0.00,4,,345
2012-11-21,74,62,50,59,55,49,97,78,56,30.18,30.13,30.08,10,10,10,10,5,16,0.00,1,,3
2012-11-22,71,58,45,57,51,46,100,84,54,30.25,30.20,30.16,10,9,2,9,2,,0.00,0,,224
2012-11-23,71,58,44,61,51,45,100,90,56,30.26,30.20,30.12,10,6,0,14,2,,0.00,0,Fog,298
2012-11-24,63,55,45,57,43,34,90,65,43,30.22,30.15,30.11,10,10,10,12,9,,0.00,0,,351
2012-11-25,62,49,36,41,35,31,97,65,36,30.25,30.18,30.14,10,10,10,6,3,,0.00,0,,72
2012-11-26,69,54,38,56,48,37,99,79,58,30.25,30.19,30.16,10,10,10,12,4,,0.00,3,,117
2012-11-27,68,62,56,63,59,53,100,94,77,30.22,30.16,30.10,10,8,0,16,5,22,0.07,6,Rain,45
2012-11-28,57,52,43,57,52,43,100,93,76,30.37,30.30,30.21,10,10,4,10,6,,0.00,6,,21
2012-11-29,64,52,39,56,47,39,100,91,68,30.39,30.33,30.28,10,8,2,10,3,,0.00,3,,45
2012-11-30,72,62,52,61,56,53,99,87,63,30.31,30.27,30.22,10,10,10,13,7,,0.00,3,,93